sensor_id;sensor_type;location;lat;lon;timestamp;pressure;altitude;pressure_sealevel;temperature
30001;BMP280;16845;48.670;9.000;2024-03-22T00:02:17;96141.84;;;12.53
30001;BMP280;16845;48.670;9.000;2024-03-22T00:04:42;96149.81;;;12.38
30001;BMP280;16845;48.670;9.000;2024-03-22T00:07:08;96146.53;;;12.34
30001;BMP280;16845;48.670;9.000;2024-03-22T00:09:34;96148.72;;;12.16
30001;BMP280;16845;48.670;9.000;2024-03-22T00:11:59;96147.09;;;12.13
30001;BMP280;16845;48.670;9.000;2024-03-22T00:14:28;96147.25;;;12.07
30001;BMP280;16845;48.670;9.000;2024-03-22T00:16:54;96146.31;;;12.11
30001;BMP280;16845;48.670;9.000;2024-03-22T00:19:20;96150.69;;;12.03
30001;BMP280;16845;48.670;9.000;2024-03-22T00:21:45;96142.41;;;12.00
30001;BMP280;16845;48.670;9.000;2024-03-22T00:24:11;96144.25;;;11.93
30001;BMP280;16845;48.670;9.000;2024-03-22T00:26:36;96140.03;;;11.94
30001;BMP280;16845;48.670;9.000;2024-03-22T00:29:02;96129.53;;;11.78
30001;BMP280;16845;48.670;9.000;2024-03-22T00:31:29;96139.75;;;11.73
30001;BMP280;16845;48.670;9.000;2024-03-22T00:33:54;96135.50;;;11.74
30001;BMP280;16845;48.670;9.000;2024-03-22T00:36:20;96133.38;;;11.60
30001;BMP280;16845;48.670;9.000;2024-03-22T00:38:46;96131.47;;;11.68
30001;BMP280;16845;48.670;9.000;2024-03-22T00:41:12;96129.13;;;11.62
30001;BMP280;16845;48.670;9.000;2024-03-22T00:43:37;96121.69;;;11.57
30001;BMP280;16845;48.670;9.000;2024-03-22T00:46:05;96125.91;;;11.54
30001;BMP280;16845;48.670;9.000;2024-03-22T00:48:32;96116.03;;;11.48
30001;BMP280;16845;48.670;9.000;2024-03-22T00:50:57;96112.78;;;11.43
30001;BMP280;16845;48.670;9.000;2024-03-22T00:53:23;96106.22;;;11.37
30001;BMP280;16845;48.670;9.000;2024-03-22T00:55:49;96104.28;;;11.48
30001;BMP280;16845;48.670;9.000;2024-03-22T00:58:14;96102.94;;;11.34
30001;BMP280;16845;48.670;9.000;2024-03-22T01:00:40;96101.63;;;11.54
30001;BMP280;16845;48.670;9.000;2024-03-22T01:03:05;96093.56;;;11.40
30001;BMP280;16845;48.670;9.000;2024-03-22T01:05:32;96096.56;;;11.56
30001;BMP280;16845;48.670;9.000;2024-03-22T01:07:59;96087.22;;;11.62
30001;BMP280;16845;48.670;9.000;2024-03-22T01:10:25;96080.91;;;11.79
30001;BMP280;16845;48.670;9.000;2024-03-22T01:12:51;96081.84;;;11.75
30001;BMP280;16845;48.670;9.000;2024-03-22T01:15:16;96081.16;;;11.71
30001;BMP280;16845;48.670;9.000;2024-03-22T01:17:42;96076.13;;;11.71
30001;BMP280;16845;48.670;9.000;2024-03-22T01:20:08;96074.03;;;11.53
30001;BMP280;16845;48.670;9.000;2024-03-22T01:22:36;96067.66;;;11.74
30001;BMP280;16845;48.670;9.000;2024-03-22T01:25:01;96072.97;;;11.63
30001;BMP280;16845;48.670;9.000;2024-03-22T01:27:27;96073.72;;;11.66
30001;BMP280;16845;48.670;9.000;2024-03-22T01:29:52;96070.66;;;11.52
30001;BMP280;16845;48.670;9.000;2024-03-22T01:32:18;96065.28;;;11.68
30001;BMP280;16845;48.670;9.000;2024-03-22T01:34:43;96061.47;;;11.53
30001;BMP280;16845;48.670;9.000;2024-03-22T01:37:09;96057.88;;;11.64
30001;BMP280;16845;48.670;9.000;2024-03-22T01:39:36;96051.06;;;11.68
30001;BMP280;16845;48.670;9.000;2024-03-22T01:42:01;96057.91;;;11.94
30001;BMP280;16845;48.670;9.000;2024-03-22T01:44:28;96060.66;;;11.85
30001;BMP280;16845;48.670;9.000;2024-03-22T01:46:53;96056.69;;;11.77
30001;BMP280;16845;48.670;9.000;2024-03-22T01:49:19;96057.44;;;11.46
30001;BMP280;16845;48.670;9.000;2024-03-22T01:51:45;96058.13;;;11.17
30001;BMP280;16845;48.670;9.000;2024-03-22T01:54:10;96062.53;;;11.08
30001;BMP280;16845;48.670;9.000;2024-03-22T01:56:38;96055.53;;;10.84
30001;BMP280;16845;48.670;9.000;2024-03-22T01:59:04;96057.28;;;10.80
30001;BMP280;16845;48.670;9.000;2024-03-22T02:01:30;96061.00;;;10.64
30001;BMP280;16845;48.670;9.000;2024-03-22T02:03:56;96057.28;;;10.41
30001;BMP280;16845;48.670;9.000;2024-03-22T02:06:21;96052.34;;;10.38
30001;BMP280;16845;48.670;9.000;2024-03-22T02:08:47;96043.41;;;10.25
30001;BMP280;16845;48.670;9.000;2024-03-22T02:11:12;96041.78;;;10.22
30001;BMP280;16845;48.670;9.000;2024-03-22T02:13:39;96037.66;;;10.20
30001;BMP280;16845;48.670;9.000;2024-03-22T02:16:05;96034.69;;;10.00
30001;BMP280;16845;48.670;9.000;2024-03-22T02:18:31;96039.50;;;9.65
30001;BMP280;16845;48.670;9.000;2024-03-22T02:20:57;96040.50;;;10.00
30001;BMP280;16845;48.670;9.000;2024-03-22T02:23:32;96042.38;;;9.91
30001;BMP280;16845;48.670;9.000;2024-03-22T02:25:58;96029.72;;;9.97
30001;BMP280;16845;48.670;9.000;2024-03-22T02:28:24;96030.69;;;9.90
30001;BMP280;16845;48.670;9.000;2024-03-22T02:30:49;96017.91;;;10.05
30001;BMP280;16845;48.670;9.000;2024-03-22T02:33:15;96023.97;;;9.92
30001;BMP280;16845;48.670;9.000;2024-03-22T02:35:41;96032.16;;;10.03
30001;BMP280;16845;48.670;9.000;2024-03-22T02:38:06;96030.50;;;9.99
30001;BMP280;16845;48.670;9.000;2024-03-22T02:40:33;96021.75;;;10.21
30001;BMP280;16845;48.670;9.000;2024-03-22T02:42:59;96026.16;;;10.51
30001;BMP280;16845;48.670;9.000;2024-03-22T02:45:24;96025.91;;;10.61
30001;BMP280;16845;48.670;9.000;2024-03-22T02:47:50;96026.47;;;10.36
30001;BMP280;16845;48.670;9.000;2024-03-22T02:50:16;96026.25;;;10.46
30001;BMP280;16845;48.670;9.000;2024-03-22T02:52:41;96028.31;;;10.28
30001;BMP280;16845;48.670;9.000;2024-03-22T02:55:07;96023.06;;;10.38
30001;BMP280;16845;48.670;9.000;2024-03-22T02:57:34;96015.50;;;10.41
30001;BMP280;16845;48.670;9.000;2024-03-22T03:00:00;96005.41;;;10.43
30001;BMP280;16845;48.670;9.000;2024-03-22T03:02:26;96002.91;;;10.43
30001;BMP280;16845;48.670;9.000;2024-03-22T03:04:52;95998.66;;;10.46
30001;BMP280;16845;48.670;9.000;2024-03-22T03:07:18;96008.22;;;10.69
30001;BMP280;16845;48.670;9.000;2024-03-22T03:09:43;96015.97;;;10.95
30001;BMP280;16845;48.670;9.000;2024-03-22T03:12:09;96011.25;;;11.18
30001;BMP280;16845;48.670;9.000;2024-03-22T03:14:36;96004.59;;;11.15
30001;BMP280;16845;48.670;9.000;2024-03-22T03:17:01;96012.59;;;11.31
30001;BMP280;16845;48.670;9.000;2024-03-22T03:19:27;96008.22;;;11.39
30001;BMP280;16845;48.670;9.000;2024-03-22T03:21:52;96006.34;;;11.13
30001;BMP280;16845;48.670;9.000;2024-03-22T03:24:18;96009.88;;;11.40
30001;BMP280;16845;48.670;9.000;2024-03-22T03:26:43;96006.88;;;11.26
30001;BMP280;16845;48.670;9.000;2024-03-22T03:29:09;95995.72;;;11.02
30001;BMP280;16845;48.670;9.000;2024-03-22T03:31:36;95996.25;;;10.80
30001;BMP280;16845;48.670;9.000;2024-03-22T03:34:01;95991.34;;;10.74
30001;BMP280;16845;48.670;9.000;2024-03-22T03:36:27;95995.63;;;10.70
30001;BMP280;16845;48.670;9.000;2024-03-22T03:38:52;95987.69;;;10.88
30001;BMP280;16845;48.670;9.000;2024-03-22T03:41:18;95977.38;;;10.64
30001;BMP280;16845;48.670;9.000;2024-03-22T03:43:44;95972.41;;;10.62
30001;BMP280;16845;48.670;9.000;2024-03-22T03:46:09;95982.31;;;10.67
30001;BMP280;16845;48.670;9.000;2024-03-22T03:48:36;95979.06;;;10.63
30001;BMP280;16845;48.670;9.000;2024-03-22T03:51:02;95984.22;;;10.94
30001;BMP280;16845;48.670;9.000;2024-03-22T03:53:27;95978.91;;;11.06
30001;BMP280;16845;48.670;9.000;2024-03-22T03:55:53;95977.97;;;11.10
30001;BMP280;16845;48.670;9.000;2024-03-22T03:58:18;95972.84;;;11.13
30001;BMP280;16845;48.670;9.000;2024-03-22T04:00:44;95969.53;;;11.12
30001;BMP280;16845;48.670;9.000;2024-03-22T04:03:09;95974.66;;;11.08
30001;BMP280;16845;48.670;9.000;2024-03-22T04:05:36;95975.53;;;11.07
30001;BMP280;16845;48.670;9.000;2024-03-22T04:08:02;95972.63;;;11.22
30001;BMP280;16845;48.670;9.000;2024-03-22T04:10:28;95971.78;;;11.23
30001;BMP280;16845;48.670;9.000;2024-03-22T04:12:54;95972.22;;;11.05
30001;BMP280;16845;48.670;9.000;2024-03-22T04:15:19;95970.81;;;10.93
30001;BMP280;16845;48.670;9.000;2024-03-22T04:17:45;95968.84;;;11.06
30001;BMP280;16845;48.670;9.000;2024-03-22T04:20:11;95967.63;;;10.87
30001;BMP280;16845;48.670;9.000;2024-03-22T04:22:38;95968.50;;;10.84
30001;BMP280;16845;48.670;9.000;2024-03-22T04:25:05;95966.09;;;10.81
30001;BMP280;16845;48.670;9.000;2024-03-22T04:27:30;95971.44;;;11.03
30001;BMP280;16845;48.670;9.000;2024-03-22T04:29:56;95968.69;;;11.12
30001;BMP280;16845;48.670;9.000;2024-03-22T04:32:22;95968.03;;;11.05
30001;BMP280;16845;48.670;9.000;2024-03-22T04:34:47;95970.97;;;11.22
30001;BMP280;16845;48.670;9.000;2024-03-22T04:37:13;95968.41;;;11.24
30001;BMP280;16845;48.670;9.000;2024-03-22T04:39:40;95967.59;;;11.23
30001;BMP280;16845;48.670;9.000;2024-03-22T04:42:06;95973.16;;;11.34
30001;BMP280;16845;48.670;9.000;2024-03-22T04:44:31;95968.69;;;11.45
30001;BMP280;16845;48.670;9.000;2024-03-22T04:46:57;95972.09;;;11.44
30001;BMP280;16845;48.670;9.000;2024-03-22T04:49:23;95972.88;;;11.45
30001;BMP280;16845;48.670;9.000;2024-03-22T04:51:48;95974.94;;;11.64
30001;BMP280;16845;48.670;9.000;2024-03-22T04:54:14;95964.41;;;11.82
30001;BMP280;16845;48.670;9.000;2024-03-22T04:56:41;95975.94;;;11.89
30001;BMP280;16845;48.670;9.000;2024-03-22T04:59:06;95968.63;;;12.10
30001;BMP280;16845;48.670;9.000;2024-03-22T05:01:32;95964.22;;;12.18
30001;BMP280;16845;48.670;9.000;2024-03-22T05:03:57;95966.81;;;12.15
30001;BMP280;16845;48.670;9.000;2024-03-22T05:06:23;95971.31;;;12.04
30001;BMP280;16845;48.670;9.000;2024-03-22T05:08:48;95968.72;;;12.07
30001;BMP280;16845;48.670;9.000;2024-03-22T05:11:14;95967.06;;;12.06
30001;BMP280;16845;48.670;9.000;2024-03-22T05:13:41;95969.75;;;12.00
30001;BMP280;16845;48.670;9.000;2024-03-22T05:16:06;95971.13;;;12.10
30001;BMP280;16845;48.670;9.000;2024-03-22T05:18:32;95969.16;;;11.61
30001;BMP280;16845;48.670;9.000;2024-03-22T05:20:57;95974.31;;;11.55
30001;BMP280;16845;48.670;9.000;2024-03-22T05:23:23;95970.91;;;11.59
30001;BMP280;16845;48.670;9.000;2024-03-22T05:25:48;95965.25;;;11.49
30001;BMP280;16845;48.670;9.000;2024-03-22T05:28:14;95962.84;;;11.45
30001;BMP280;16845;48.670;9.000;2024-03-22T05:30:41;95952.66;;;11.51
30001;BMP280;16845;48.670;9.000;2024-03-22T05:33:07;95955.31;;;11.45
30001;BMP280;16845;48.670;9.000;2024-03-22T05:35:32;95945.03;;;11.54
30001;BMP280;16845;48.670;9.000;2024-03-22T05:37:58;95949.84;;;11.63
30001;BMP280;16845;48.670;9.000;2024-03-22T05:40:23;95948.44;;;11.51
30001;BMP280;16845;48.670;9.000;2024-03-22T05:42:49;95945.59;;;11.65
30001;BMP280;16845;48.670;9.000;2024-03-22T05:45:14;95946.50;;;11.62
30001;BMP280;16845;48.670;9.000;2024-03-22T05:47:41;95943.28;;;11.59
30001;BMP280;16845;48.670;9.000;2024-03-22T05:50:08;95940.13;;;11.49
30001;BMP280;16845;48.670;9.000;2024-03-22T05:52:34;95938.13;;;11.30
30001;BMP280;16845;48.670;9.000;2024-03-22T05:55:00;95932.47;;;11.54
30001;BMP280;16845;48.670;9.000;2024-03-22T05:57:26;95925.78;;;11.53
30001;BMP280;16845;48.670;9.000;2024-03-22T05:59:51;95934.66;;;11.34
30001;BMP280;16845;48.670;9.000;2024-03-22T06:02:17;95925.69;;;11.56
30001;BMP280;16845;48.670;9.000;2024-03-22T06:04:44;95926.97;;;11.40
30001;BMP280;16845;48.670;9.000;2024-03-22T06:07:09;95926.03;;;11.44
30001;BMP280;16845;48.670;9.000;2024-03-22T06:09:35;95923.06;;;11.28
30001;BMP280;16845;48.670;9.000;2024-03-22T06:12:00;95921.19;;;11.38
30001;BMP280;16845;48.670;9.000;2024-03-22T06:14:26;95915.88;;;11.47
30001;BMP280;16845;48.670;9.000;2024-03-22T06:16:51;95915.19;;;11.42
30001;BMP280;16845;48.670;9.000;2024-03-22T06:19:17;95919.88;;;11.23
30001;BMP280;16845;48.670;9.000;2024-03-22T06:21:44;95920.78;;;11.53
30001;BMP280;16845;48.670;9.000;2024-03-22T06:24:09;95920.38;;;11.68
30001;BMP280;16845;48.670;9.000;2024-03-22T06:26:35;95921.22;;;11.68
30001;BMP280;16845;48.670;9.000;2024-03-22T06:29:00;95918.06;;;11.90
30001;BMP280;16845;48.670;9.000;2024-03-22T06:31:26;95917.25;;;11.90
30001;BMP280;16845;48.670;9.000;2024-03-22T06:33:52;95912.34;;;12.14
30001;BMP280;16845;48.670;9.000;2024-03-22T06:36:17;95917.56;;;12.63
30001;BMP280;16845;48.670;9.000;2024-03-22T06:38:44;95920.72;;;12.70
30001;BMP280;16845;48.670;9.000;2024-03-22T06:41:10;95911.53;;;12.96
30001;BMP280;16845;48.670;9.000;2024-03-22T06:43:35;95907.09;;;13.03
30001;BMP280;16845;48.670;9.000;2024-03-22T06:46:01;95899.19;;;13.13
30001;BMP280;16845;48.670;9.000;2024-03-22T06:48:26;95900.94;;;12.85
30001;BMP280;16845;48.670;9.000;2024-03-22T06:50:52;95898.81;;;12.99
30001;BMP280;16845;48.670;9.000;2024-03-22T06:53:18;95896.88;;;13.07
30001;BMP280;16845;48.670;9.000;2024-03-22T06:55:44;95906.56;;;12.93
30001;BMP280;16845;48.670;9.000;2024-03-22T06:58:10;95902.16;;;13.00
30001;BMP280;16845;48.670;9.000;2024-03-22T07:00:36;95902.03;;;13.29
30001;BMP280;16845;48.670;9.000;2024-03-22T07:03:01;95910.25;;;12.83
30001;BMP280;16845;48.670;9.000;2024-03-22T07:05:28;95905.13;;;12.85
30001;BMP280;16845;48.670;9.000;2024-03-22T07:07:53;95912.66;;;12.86
30001;BMP280;16845;48.670;9.000;2024-03-22T07:10:19;95907.91;;;12.77
30001;BMP280;16845;48.670;9.000;2024-03-22T07:12:46;95907.91;;;13.03
30001;BMP280;16845;48.670;9.000;2024-03-22T07:15:11;95903.00;;;13.49
30001;BMP280;16845;48.670;9.000;2024-03-22T07:17:37;95897.22;;;14.16
30001;BMP280;16845;48.670;9.000;2024-03-22T07:20:03;95888.22;;;14.75
30001;BMP280;16845;48.670;9.000;2024-03-22T07:22:28;95891.97;;;14.86
30001;BMP280;16845;48.670;9.000;2024-03-22T07:24:54;95881.75;;;15.31
30001;BMP280;16845;48.670;9.000;2024-03-22T07:27:19;95883.75;;;15.23
30001;BMP280;16845;48.670;9.000;2024-03-22T07:29:47;95883.34;;;15.72
30001;BMP280;16845;48.670;9.000;2024-03-22T07:32:13;95878.97;;;16.51
30001;BMP280;16845;48.670;9.000;2024-03-22T07:34:38;95875.38;;;17.24
30001;BMP280;16845;48.670;9.000;2024-03-22T07:37:06;95866.19;;;17.72
30001;BMP280;16845;48.670;9.000;2024-03-22T07:39:31;95866.59;;;17.80
30001;BMP280;16845;48.670;9.000;2024-03-22T07:41:57;95867.47;;;18.27
30001;BMP280;16845;48.670;9.000;2024-03-22T07:44:22;95864.63;;;18.18
30001;BMP280;16845;48.670;9.000;2024-03-22T07:46:49;95855.34;;;18.01
30001;BMP280;16845;48.670;9.000;2024-03-22T07:49:15;95849.13;;;18.22
30001;BMP280;16845;48.670;9.000;2024-03-22T07:51:40;95856.88;;;18.36
30001;BMP280;16845;48.670;9.000;2024-03-22T07:54:06;95858.50;;;18.68
30001;BMP280;16845;48.670;9.000;2024-03-22T07:56:32;95855.88;;;18.70
30001;BMP280;16845;48.670;9.000;2024-03-22T07:58:57;95853.84;;;19.35
30001;BMP280;16845;48.670;9.000;2024-03-22T08:01:23;95851.44;;;19.18
30001;BMP280;16845;48.670;9.000;2024-03-22T08:03:51;95840.22;;;20.20
30001;BMP280;16845;48.670;9.000;2024-03-22T08:06:16;95847.22;;;20.02
30001;BMP280;16845;48.670;9.000;2024-03-22T08:08:42;95848.97;;;20.02
30001;BMP280;16845;48.670;9.000;2024-03-22T08:11:07;95850.91;;;19.70
30001;BMP280;16845;48.670;9.000;2024-03-22T08:13:33;95854.75;;;20.32
30001;BMP280;16845;48.670;9.000;2024-03-22T08:15:58;95848.16;;;20.96
30001;BMP280;16845;48.670;9.000;2024-03-22T08:18:24;95843.75;;;21.50
30001;BMP280;16845;48.670;9.000;2024-03-22T08:20:51;95843.34;;;22.05
30001;BMP280;16845;48.670;9.000;2024-03-22T08:23:16;95832.28;;;22.89
30001;BMP280;16845;48.670;9.000;2024-03-22T08:25:42;95842.03;;;23.42
30001;BMP280;16845;48.670;9.000;2024-03-22T08:28:08;95830.72;;;24.12
30001;BMP280;16845;48.670;9.000;2024-03-22T08:30:36;95812.66;;;24.89
30001;BMP280;16845;48.670;9.000;2024-03-22T08:33:02;95814.50;;;24.23
30001;BMP280;16845;48.670;9.000;2024-03-22T08:35:28;95809.25;;;24.88
30001;BMP280;16845;48.670;9.000;2024-03-22T08:37:55;95811.31;;;24.63
30001;BMP280;16845;48.670;9.000;2024-03-22T08:40:20;95804.69;;;23.51
30001;BMP280;16845;48.670;9.000;2024-03-22T08:42:46;95815.06;;;22.44
30001;BMP280;16845;48.670;9.000;2024-03-22T08:45:11;95812.97;;;20.75
30001;BMP280;16845;48.670;9.000;2024-03-22T08:47:37;95824.03;;;20.35
30001;BMP280;16845;48.670;9.000;2024-03-22T08:50:03;95822.34;;;20.48
30001;BMP280;16845;48.670;9.000;2024-03-22T08:52:29;95817.91;;;20.37
30001;BMP280;16845;48.670;9.000;2024-03-22T08:54:56;95823.91;;;20.10
30001;BMP280;16845;48.670;9.000;2024-03-22T08:57:21;95812.63;;;21.57
30001;BMP280;16845;48.670;9.000;2024-03-22T08:59:47;95806.97;;;22.74
30001;BMP280;16845;48.670;9.000;2024-03-22T09:02:13;95803.41;;;23.56
30001;BMP280;16845;48.670;9.000;2024-03-22T09:04:38;95783.66;;;24.02
30001;BMP280;16845;48.670;9.000;2024-03-22T09:07:04;95784.22;;;23.73
30001;BMP280;16845;48.670;9.000;2024-03-22T09:09:29;95789.66;;;23.01
30001;BMP280;16845;48.670;9.000;2024-03-22T09:11:56;95771.97;;;24.53
30001;BMP280;16845;48.670;9.000;2024-03-22T09:14:22;95777.88;;;25.16
30001;BMP280;16845;48.670;9.000;2024-03-22T09:16:47;95771.16;;;26.26
30001;BMP280;16845;48.670;9.000;2024-03-22T09:19:13;95769.84;;;26.41
30001;BMP280;16845;48.670;9.000;2024-03-22T09:21:38;95769.03;;;26.40
30001;BMP280;16845;48.670;9.000;2024-03-22T09:24:04;95761.81;;;27.21
30001;BMP280;16845;48.670;9.000;2024-03-22T09:26:31;95759.94;;;26.46
30001;BMP280;16845;48.670;9.000;2024-03-22T09:28:58;95769.69;;;27.65
30001;BMP280;16845;48.670;9.000;2024-03-22T09:31:24;95757.31;;;27.13
30001;BMP280;16845;48.670;9.000;2024-03-22T09:33:49;95744.06;;;27.73
30001;BMP280;16845;48.670;9.000;2024-03-22T09:36:15;95734.50;;;28.82
30001;BMP280;16845;48.670;9.000;2024-03-22T09:38:42;95734.44;;;27.75
30001;BMP280;16845;48.670;9.000;2024-03-22T09:41:08;95733.88;;;26.88
30001;BMP280;16845;48.670;9.000;2024-03-22T09:43:34;95736.78;;;24.96
30001;BMP280;16845;48.670;9.000;2024-03-22T09:46:02;95734.59;;;25.83
30001;BMP280;16845;48.670;9.000;2024-03-22T09:48:27;95731.28;;;25.92
30001;BMP280;16845;48.670;9.000;2024-03-22T09:50:54;95730.75;;;24.23
30001;BMP280;16845;48.670;9.000;2024-03-22T09:53:21;95732.88;;;24.60
30001;BMP280;16845;48.670;9.000;2024-03-22T09:55:47;95736.38;;;25.32
30001;BMP280;16845;48.670;9.000;2024-03-22T09:58:13;95727.03;;;25.51
30001;BMP280;16845;48.670;9.000;2024-03-22T10:00:39;95717.91;;;26.85
30001;BMP280;16845;48.670;9.000;2024-03-22T10:03:07;95718.16;;;27.10
30001;BMP280;16845;48.670;9.000;2024-03-22T10:05:33;95708.13;;;26.79
30001;BMP280;16845;48.670;9.000;2024-03-22T10:07:59;95701.63;;;27.22
30001;BMP280;16845;48.670;9.000;2024-03-22T10:10:24;95714.94;;;24.81
30001;BMP280;16845;48.670;9.000;2024-03-22T10:12:50;95708.38;;;25.49
30001;BMP280;16845;48.670;9.000;2024-03-22T10:15:17;95705.63;;;23.95
30001;BMP280;16845;48.670;9.000;2024-03-22T10:17:42;95712.31;;;24.92
30001;BMP280;16845;48.670;9.000;2024-03-22T10:20:12;95710.00;;;25.30
30001;BMP280;16845;48.670;9.000;2024-03-22T10:22:41;95710.81;;;24.69
30001;BMP280;16845;48.670;9.000;2024-03-22T10:25:07;95712.69;;;24.67
30001;BMP280;16845;48.670;9.000;2024-03-22T10:27:32;95697.00;;;25.52
30001;BMP280;16845;48.670;9.000;2024-03-22T10:29:58;95694.25;;;27.36
30001;BMP280;16845;48.670;9.000;2024-03-22T10:32:25;95683.69;;;29.00
30001;BMP280;16845;48.670;9.000;2024-03-22T10:34:50;95674.13;;;28.57
30001;BMP280;16845;48.670;9.000;2024-03-22T10:37:17;95674.41;;;27.46
30001;BMP280;16845;48.670;9.000;2024-03-22T10:39:46;95672.66;;;26.92
30001;BMP280;16845;48.670;9.000;2024-03-22T10:42:13;95666.09;;;25.93
30001;BMP280;16845;48.670;9.000;2024-03-22T10:44:40;95667.53;;;25.86
30001;BMP280;16845;48.670;9.000;2024-03-22T10:47:06;95667.00;;;25.02
30001;BMP280;16845;48.670;9.000;2024-03-22T10:49:37;95664.25;;;24.94
30001;BMP280;16845;48.670;9.000;2024-03-22T10:52:03;95657.69;;;24.49
30001;BMP280;16845;48.670;9.000;2024-03-22T10:54:35;95649.06;;;24.29
30001;BMP280;16845;48.670;9.000;2024-03-22T10:57:04;95646.56;;;24.39
30001;BMP280;16845;48.670;9.000;2024-03-22T10:59:33;95645.69;;;24.60
30001;BMP280;16845;48.670;9.000;2024-03-22T11:02:02;95639.94;;;24.68
30001;BMP280;16845;48.670;9.000;2024-03-22T11:04:30;95641.72;;;25.97
30001;BMP280;16845;48.670;9.000;2024-03-22T11:06:56;95626.50;;;26.24
30001;BMP280;16845;48.670;9.000;2024-03-22T11:09:22;95627.69;;;26.20
30001;BMP280;16845;48.670;9.000;2024-03-22T11:11:51;95627.03;;;25.09
30001;BMP280;16845;48.670;9.000;2024-03-22T11:14:17;95627.59;;;26.69
30001;BMP280;16845;48.670;9.000;2024-03-22T11:16:43;95616.69;;;27.66
30001;BMP280;16845;48.670;9.000;2024-03-22T11:19:09;95622.41;;;27.33
30001;BMP280;16845;48.670;9.000;2024-03-22T11:21:34;95614.50;;;26.98
30001;BMP280;16845;48.670;9.000;2024-03-22T11:24:00;95612.41;;;27.30
30001;BMP280;16845;48.670;9.000;2024-03-22T11:26:25;95607.53;;;27.27
30001;BMP280;16845;48.670;9.000;2024-03-22T11:28:52;95613.63;;;26.81
30001;BMP280;16845;48.670;9.000;2024-03-22T11:31:18;95599.00;;;26.15
30001;BMP280;16845;48.670;9.000;2024-03-22T11:33:44;95586.34;;;27.33
30001;BMP280;16845;48.670;9.000;2024-03-22T11:36:09;95585.50;;;27.96
30001;BMP280;16845;48.670;9.000;2024-03-22T11:38:35;95588.47;;;27.01
30001;BMP280;16845;48.670;9.000;2024-03-22T11:41:01;95577.28;;;27.56
30001;BMP280;16845;48.670;9.000;2024-03-22T11:43:30;95564.59;;;27.18
30001;BMP280;16845;48.670;9.000;2024-03-22T11:45:57;95575.19;;;27.15
30001;BMP280;16845;48.670;9.000;2024-03-22T11:48:22;95562.84;;;28.86
30001;BMP280;16845;48.670;9.000;2024-03-22T11:50:49;95563.31;;;29.73
30001;BMP280;16845;48.670;9.000;2024-03-22T11:53:15;95556.56;;;27.31
30001;BMP280;16845;48.670;9.000;2024-03-22T11:55:41;95557.06;;;26.52
30001;BMP280;16845;48.670;9.000;2024-03-22T11:58:08;95553.06;;;27.49
30001;BMP280;16845;48.670;9.000;2024-03-22T12:00:34;95554.06;;;26.38
30001;BMP280;16845;48.670;9.000;2024-03-22T12:03:03;95546.88;;;27.15
30001;BMP280;16845;48.670;9.000;2024-03-22T12:05:29;95547.38;;;25.50
30001;BMP280;16845;48.670;9.000;2024-03-22T12:07:55;95538.34;;;25.74
30001;BMP280;16845;48.670;9.000;2024-03-22T12:10:24;95541.38;;;26.08
30001;BMP280;16845;48.670;9.000;2024-03-22T12:12:49;95537.72;;;25.91
30001;BMP280;16845;48.670;9.000;2024-03-22T12:15:15;95534.59;;;26.16
30001;BMP280;16845;48.670;9.000;2024-03-22T12:17:40;95522.69;;;26.89
30001;BMP280;16845;48.670;9.000;2024-03-22T12:20:08;95517.81;;;27.77
30001;BMP280;16845;48.670;9.000;2024-03-22T12:22:34;95506.22;;;27.98
30001;BMP280;16845;48.670;9.000;2024-03-22T12:25:00;95504.63;;;27.80
30001;BMP280;16845;48.670;9.000;2024-03-22T12:27:26;95494.84;;;28.69
30001;BMP280;16845;48.670;9.000;2024-03-22T12:29:51;95488.19;;;29.83
30001;BMP280;16845;48.670;9.000;2024-03-22T12:32:17;95480.44;;;29.99
30001;BMP280;16845;48.670;9.000;2024-03-22T12:34:43;95482.69;;;30.58
30001;BMP280;16845;48.670;9.000;2024-03-22T12:37:10;95483.31;;;27.95
30001;BMP280;16845;48.670;9.000;2024-03-22T12:39:35;95478.63;;;27.73
30001;BMP280;16845;48.670;9.000;2024-03-22T12:42:01;95470.56;;;28.88
30001;BMP280;16845;48.670;9.000;2024-03-22T12:44:27;95467.53;;;29.34
30001;BMP280;16845;48.670;9.000;2024-03-22T12:46:52;95466.22;;;28.88
30001;BMP280;16845;48.670;9.000;2024-03-22T12:49:18;95461.03;;;28.29
30001;BMP280;16845;48.670;9.000;2024-03-22T12:51:43;95453.06;;;28.74
30001;BMP280;16845;48.670;9.000;2024-03-22T12:54:10;95450.03;;;29.69
30001;BMP280;16845;48.670;9.000;2024-03-22T12:56:36;95445.19;;;29.58
30001;BMP280;16845;48.670;9.000;2024-03-22T12:59:01;95437.78;;;30.19
30001;BMP280;16845;48.670;9.000;2024-03-22T13:01:27;95434.66;;;29.52
30001;BMP280;16845;48.670;9.000;2024-03-22T13:03:54;95431.72;;;28.13
30001;BMP280;16845;48.670;9.000;2024-03-22T13:06:20;95431.00;;;26.43
30001;BMP280;16845;48.670;9.000;2024-03-22T13:08:45;95424.09;;;27.68
30001;BMP280;16845;48.670;9.000;2024-03-22T13:11:12;95425.06;;;26.79
30001;BMP280;16845;48.670;9.000;2024-03-22T13:13:38;95409.75;;;27.04
30001;BMP280;16845;48.670;9.000;2024-03-22T13:16:04;95408.72;;;27.59
30001;BMP280;16845;48.670;9.000;2024-03-22T13:18:29;95408.75;;;26.88
30001;BMP280;16845;48.670;9.000;2024-03-22T13:20:55;95406.94;;;27.24
30001;BMP280;16845;48.670;9.000;2024-03-22T13:23:21;95395.09;;;27.66
30001;BMP280;16845;48.670;9.000;2024-03-22T13:25:47;95389.38;;;27.55
30001;BMP280;16845;48.670;9.000;2024-03-22T13:28:13;95391.31;;;27.08
30001;BMP280;16845;48.670;9.000;2024-03-22T13:30:39;95391.38;;;25.90
30001;BMP280;16845;48.670;9.000;2024-03-22T13:33:05;95389.47;;;25.54
30001;BMP280;16845;48.670;9.000;2024-03-22T13:35:30;95374.25;;;26.54
30001;BMP280;16845;48.670;9.000;2024-03-22T13:37:56;95376.09;;;27.32
30001;BMP280;16845;48.670;9.000;2024-03-22T13:40:21;95360.31;;;28.13
30001;BMP280;16845;48.670;9.000;2024-03-22T13:42:47;95362.84;;;27.62
30001;BMP280;16845;48.670;9.000;2024-03-22T13:45:14;95358.88;;;29.43
30001;BMP280;16845;48.670;9.000;2024-03-22T13:47:39;95356.50;;;31.29
30001;BMP280;16845;48.670;9.000;2024-03-22T13:50:06;95344.66;;;32.59
30001;BMP280;16845;48.670;9.000;2024-03-22T13:52:32;95350.75;;;32.01
30001;BMP280;16845;48.670;9.000;2024-03-22T13:54:57;95352.06;;;29.10
30001;BMP280;16845;48.670;9.000;2024-03-22T13:57:23;95347.28;;;29.55
30001;BMP280;16845;48.670;9.000;2024-03-22T13:59:48;95338.09;;;31.69
30001;BMP280;16845;48.670;9.000;2024-03-22T14:02:15;95330.72;;;30.28